sensor_id;sensor_type;location;lat;lon;timestamp;pressure;altitude;pressure_sealevel;temperature;humidity
33189;BME280;52601;53.070;10.600;2022-08-25T00:00:54;101721.94;;;20.32;100.00
33189;BME280;52601;53.070;10.600;2022-08-25T00:03:40;101716.31;;;20.24;100.00
33189;BME280;52601;53.070;10.600;2022-08-25T00:06:29;101718.75;;;20.27;100.00
33189;BME280;52601;53.070;10.600;2022-08-25T00:09:19;101712.16;;;20.20;100.00
33189;BME280;52601;53.070;10.600;2022-08-25T00:12:05;101718.53;;;20.17;100.00
33189;BME280;52601;53.070;10.600;2022-08-25T00:14:50;101714.88;;;20.18;100.00
33189;BME280;52601;53.070;10.600;2022-08-25T00:17:36;101718.97;;;20.11;100.00
33189;BME280;52601;53.070;10.600;2022-08-25T00:20:22;101711.59;;;20.15;100.00
33189;BME280;52601;53.070;10.600;2022-08-25T00:23:07;101720.16;;;20.20;100.00
33189;BME280;52601;53.070;10.600;2022-08-25T00:25:53;101719.63;;;20.02;100.00
33189;BME280;52601;53.070;10.600;2022-08-25T00:28:39;101721.44;;;20.14;100.00
33189;BME280;52601;53.070;10.600;2022-08-25T00:31:24;101712.38;;;20.04;100.00
33189;BME280;52601;53.070;10.600;2022-08-25T00:34:29;101721.56;;;20.00;100.00
33189;BME280;52601;53.070;10.600;2022-08-25T00:37:16;101728.06;;;19.96;100.00
33189;BME280;52601;53.070;10.600;2022-08-25T00:40:02;101724.75;;;19.93;100.00
33189;BME280;52601;53.070;10.600;2022-08-25T00:42:48;101730.91;;;19.93;100.00
33189;BME280;52601;53.070;10.600;2022-08-25T00:45:33;101732.72;;;19.93;100.00
33189;BME280;52601;53.070;10.600;2022-08-25T00:48:19;101732.00;;;19.78;100.00
33189;BME280;52601;53.070;10.600;2022-08-25T00:51:06;101734.66;;;19.65;100.00
33189;BME280;52601;53.070;10.600;2022-08-25T00:53:54;101735.41;;;19.67;100.00
33189;BME280;52601;53.070;10.600;2022-08-25T00:56:40;101733.06;;;19.63;100.00
33189;BME280;52601;53.070;10.600;2022-08-25T00:59:26;101722.41;;;19.63;100.00
33189;BME280;52601;53.070;10.600;2022-08-25T01:02:13;101715.94;;;19.67;100.00
33189;BME280;52601;53.070;10.600;2022-08-25T01:04:59;101729.56;;;19.62;100.00
33189;BME280;52601;53.070;10.600;2022-08-25T01:07:45;101727.44;;;19.67;100.00
33189;BME280;52601;53.070;10.600;2022-08-25T01:10:32;101722.75;;;19.71;100.00
33189;BME280;52601;53.070;10.600;2022-08-25T01:13:23;101728.91;;;19.71;100.00
33189;BME280;52601;53.070;10.600;2022-08-25T01:16:12;101722.00;;;19.69;100.00
33189;BME280;52601;53.070;10.600;2022-08-25T01:18:59;101725.31;;;19.60;100.00
33189;BME280;52601;53.070;10.600;2022-08-25T01:21:47;101723.81;;;19.56;100.00
33189;BME280;52601;53.070;10.600;2022-08-25T01:24:46;101727.84;;;19.49;100.00
33189;BME280;52601;53.070;10.600;2022-08-25T01:27:34;101715.50;;;19.48;100.00
33189;BME280;52601;53.070;10.600;2022-08-25T01:30:19;101723.69;;;19.57;100.00
33189;BME280;52601;53.070;10.600;2022-08-25T01:33:07;101721.69;;;19.48;100.00
33189;BME280;52601;53.070;10.600;2022-08-25T01:35:53;101720.19;;;19.57;100.00
33189;BME280;52601;53.070;10.600;2022-08-25T01:38:39;101719.03;;;19.48;100.00
33189;BME280;52601;53.070;10.600;2022-08-25T01:44:18;101718.91;;;19.50;100.00
33189;BME280;52601;53.070;10.600;2022-08-25T01:47:05;101722.63;;;19.47;100.00
33189;BME280;52601;53.070;10.600;2022-08-25T01:49:51;101724.22;;;19.37;100.00
33189;BME280;52601;53.070;10.600;2022-08-25T01:52:55;101720.25;;;19.30;100.00
33189;BME280;52601;53.070;10.600;2022-08-25T01:55:43;101722.63;;;19.35;100.00
33189;BME280;52601;53.070;10.600;2022-08-25T01:58:41;101717.59;;;19.30;100.00
33189;BME280;52601;53.070;10.600;2022-08-25T02:01:29;101726.78;;;19.39;100.00
33189;BME280;52601;53.070;10.600;2022-08-25T02:04:16;101715.81;;;19.31;100.00
33189;BME280;52601;53.070;10.600;2022-08-25T02:07:07;101718.00;;;19.24;100.00
33189;BME280;52601;53.070;10.600;2022-08-25T02:09:53;101718.66;;;19.28;100.00
33189;BME280;52601;53.070;10.600;2022-08-25T02:12:38;101719.38;;;19.17;100.00
33189;BME280;52601;53.070;10.600;2022-08-25T02:15:24;101713.63;;;19.23;100.00
33189;BME280;52601;53.070;10.600;2022-08-25T02:18:10;101719.06;;;19.22;100.00
33189;BME280;52601;53.070;10.600;2022-08-25T02:20:55;101719.19;;;19.20;100.00
33189;BME280;52601;53.070;10.600;2022-08-25T02:23:41;101715.34;;;19.24;100.00
33189;BME280;52601;53.070;10.600;2022-08-25T02:26:27;101718.31;;;19.20;100.00
33189;BME280;52601;53.070;10.600;2022-08-25T02:29:13;101723.13;;;19.15;100.00
33189;BME280;52601;53.070;10.600;2022-08-25T02:32:01;101716.06;;;19.14;100.00
33189;BME280;52601;53.070;10.600;2022-08-25T02:34:48;101712.66;;;19.12;100.00
33189;BME280;52601;53.070;10.600;2022-08-25T02:37:34;101714.38;;;19.13;100.00
33189;BME280;52601;53.070;10.600;2022-08-25T02:40:20;101711.28;;;19.06;100.00
33189;BME280;52601;53.070;10.600;2022-08-25T02:43:06;101713.63;;;19.11;100.00
33189;BME280;52601;53.070;10.600;2022-08-25T02:45:53;101713.06;;;19.06;100.00
33189;BME280;52601;53.070;10.600;2022-08-25T02:48:38;101698.91;;;18.92;100.00
33189;BME280;52601;53.070;10.600;2022-08-25T02:51:25;101703.59;;;19.02;100.00
33189;BME280;52601;53.070;10.600;2022-08-25T02:54:13;101692.09;;;18.88;100.00
33189;BME280;52601;53.070;10.600;2022-08-25T02:56:58;101695.47;;;18.78;100.00
33189;BME280;52601;53.070;10.600;2022-08-25T02:59:44;101706.75;;;18.81;100.00
33189;BME280;52601;53.070;10.600;2022-08-25T03:02:32;101702.50;;;18.79;100.00
33189;BME280;52601;53.070;10.600;2022-08-25T03:05:18;101706.97;;;18.78;100.00
33189;BME280;52601;53.070;10.600;2022-08-25T03:08:04;101714.19;;;18.76;100.00
33189;BME280;52601;53.070;10.600;2022-08-25T03:10:50;101705.59;;;18.85;100.00
33189;BME280;52601;53.070;10.600;2022-08-25T03:13:36;101708.22;;;18.73;100.00
33189;BME280;52601;53.070;10.600;2022-08-25T03:16:22;101715.28;;;18.60;100.00
33189;BME280;52601;53.070;10.600;2022-08-25T03:19:12;101701.25;;;18.58;100.00
33189;BME280;52601;53.070;10.600;2022-08-25T03:21:58;101711.97;;;18.56;100.00
33189;BME280;52601;53.070;10.600;2022-08-25T03:24:44;101698.97;;;18.52;100.00
33189;BME280;52601;53.070;10.600;2022-08-25T03:27:30;101704.94;;;18.55;100.00
33189;BME280;52601;53.070;10.600;2022-08-25T03:30:17;101704.00;;;18.56;100.00
33189;BME280;52601;53.070;10.600;2022-08-25T03:33:02;101707.81;;;18.52;100.00
33189;BME280;52601;53.070;10.600;2022-08-25T03:35:48;101697.94;;;18.40;100.00
33189;BME280;52601;53.070;10.600;2022-08-25T03:38:34;101688.50;;;18.22;100.00
33189;BME280;52601;53.070;10.600;2022-08-25T03:41:24;101694.78;;;18.21;100.00
33189;BME280;52601;53.070;10.600;2022-08-25T03:44:13;101694.22;;;18.16;100.00
33189;BME280;52601;53.070;10.600;2022-08-25T03:46:59;101693.56;;;17.98;100.00
33189;BME280;52601;53.070;10.600;2022-08-25T03:49:45;101695.22;;;17.87;100.00
33189;BME280;52601;53.070;10.600;2022-08-25T03:52:31;101695.69;;;17.79;100.00
33189;BME280;52601;53.070;10.600;2022-08-25T03:55:16;101697.09;;;17.71;100.00
33189;BME280;52601;53.070;10.600;2022-08-25T03:58:01;101678.16;;;17.63;100.00
33189;BME280;52601;53.070;10.600;2022-08-25T04:00:47;101699.75;;;17.71;100.00
33189;BME280;52601;53.070;10.600;2022-08-25T04:03:33;101693.69;;;17.69;100.00
33189;BME280;52601;53.070;10.600;2022-08-25T04:06:20;101693.22;;;17.76;100.00
33189;BME280;52601;53.070;10.600;2022-08-25T04:09:06;101688.66;;;17.78;100.00
33189;BME280;52601;53.070;10.600;2022-08-25T04:11:52;101694.84;;;17.79;100.00
33189;BME280;52601;53.070;10.600;2022-08-25T04:14:38;101700.50;;;17.59;100.00
33189;BME280;52601;53.070;10.600;2022-08-25T04:17:24;101681.47;;;17.52;100.00
33189;BME280;52601;53.070;10.600;2022-08-25T04:20:10;101695.88;;;17.62;100.00
33189;BME280;52601;53.070;10.600;2022-08-25T04:22:58;101696.91;;;17.60;100.00
33189;BME280;52601;53.070;10.600;2022-08-25T04:25:45;101697.66;;;17.76;100.00
33189;BME280;52601;53.070;10.600;2022-08-25T04:28:31;101689.25;;;17.83;100.00
33189;BME280;52601;53.070;10.600;2022-08-25T04:31:18;101696.81;;;17.89;100.00
33189;BME280;52601;53.070;10.600;2022-08-25T04:34:05;101698.34;;;17.93;100.00
33189;BME280;52601;53.070;10.600;2022-08-25T04:37:11;101701.44;;;18.00;100.00
33189;BME280;52601;53.070;10.600;2022-08-25T04:39:56;101702.38;;;18.13;100.00
33189;BME280;52601;53.070;10.600;2022-08-25T04:42:42;101711.41;;;17.96;100.00
33189;BME280;52601;53.070;10.600;2022-08-25T04:45:37;101721.16;;;17.82;100.00
33189;BME280;52601;53.070;10.600;2022-08-25T04:48:23;101725.91;;;17.77;100.00
33189;BME280;52601;53.070;10.600;2022-08-25T04:51:11;101725.81;;;17.78;100.00
33189;BME280;52601;53.070;10.600;2022-08-25T04:53:59;101720.72;;;17.75;100.00
33189;BME280;52601;53.070;10.600;2022-08-25T04:56:46;101721.00;;;17.85;100.00
33189;BME280;52601;53.070;10.600;2022-08-25T04:59:32;101715.56;;;17.86;100.00
33189;BME280;52601;53.070;10.600;2022-08-25T05:02:17;101712.25;;;17.97;100.00
33189;BME280;52601;53.070;10.600;2022-08-25T05:05:03;101702.56;;;18.10;100.00
33189;BME280;52601;53.070;10.600;2022-08-25T05:07:50;101703.28;;;18.26;100.00
33189;BME280;52601;53.070;10.600;2022-08-25T05:10:39;101702.31;;;18.41;100.00
33189;BME280;52601;53.070;10.600;2022-08-25T05:13:26;101704.19;;;18.53;100.00
33189;BME280;52601;53.070;10.600;2022-08-25T05:16:14;101704.06;;;18.69;100.00
33189;BME280;52601;53.070;10.600;2022-08-25T05:19:00;101696.22;;;18.80;100.00
33189;BME280;52601;53.070;10.600;2022-08-25T05:21:45;101703.81;;;18.99;100.00
33189;BME280;52601;53.070;10.600;2022-08-25T05:24:31;101694.13;;;18.98;100.00
33189;BME280;52601;53.070;10.600;2022-08-25T05:27:17;101691.19;;;19.15;100.00
33189;BME280;52601;53.070;10.600;2022-08-25T05:30:02;101693.53;;;19.32;100.00
33189;BME280;52601;53.070;10.600;2022-08-25T05:32:48;101694.75;;;19.40;100.00
33189;BME280;52601;53.070;10.600;2022-08-25T05:35:34;101686.41;;;19.32;100.00
33189;BME280;52601;53.070;10.600;2022-08-25T05:38:20;101705.47;;;19.39;100.00
33189;BME280;52601;53.070;10.600;2022-08-25T05:41:09;101702.84;;;19.51;100.00
33189;BME280;52601;53.070;10.600;2022-08-25T05:43:55;101703.38;;;19.44;100.00
33189;BME280;52601;53.070;10.600;2022-08-25T05:46:41;101710.63;;;19.42;100.00
33189;BME280;52601;53.070;10.600;2022-08-25T05:49:26;101708.69;;;19.82;100.00
33189;BME280;52601;53.070;10.600;2022-08-25T05:52:12;101711.19;;;20.21;100.00
33189;BME280;52601;53.070;10.600;2022-08-25T05:55:05;101707.94;;;20.41;100.00
33189;BME280;52601;53.070;10.600;2022-08-25T05:57:51;101711.66;;;20.62;100.00
33189;BME280;52601;53.070;10.600;2022-08-25T06:00:38;101719.84;;;20.48;100.00
33189;BME280;52601;53.070;10.600;2022-08-25T06:03:23;101707.38;;;20.12;100.00
33189;BME280;52601;53.070;10.600;2022-08-25T06:06:09;101710.44;;;20.19;100.00
33189;BME280;52601;53.070;10.600;2022-08-25T06:08:55;101708.00;;;20.03;100.00
33189;BME280;52601;53.070;10.600;2022-08-25T06:11:40;101704.91;;;20.22;100.00
33189;BME280;52601;53.070;10.600;2022-08-25T06:14:27;101706.97;;;19.81;100.00
33189;BME280;52601;53.070;10.600;2022-08-25T06:17:12;101706.19;;;20.16;100.00
33189;BME280;52601;53.070;10.600;2022-08-25T06:19:58;101703.53;;;20.16;100.00
33189;BME280;52601;53.070;10.600;2022-08-25T06:22:44;101701.25;;;20.35;100.00
33189;BME280;52601;53.070;10.600;2022-08-25T06:25:30;101704.22;;;20.18;100.00
33189;BME280;52601;53.070;10.600;2022-08-25T06:28:18;101704.19;;;20.43;100.00
33189;BME280;52601;53.070;10.600;2022-08-25T06:31:04;101689.00;;;20.20;100.00
33189;BME280;52601;53.070;10.600;2022-08-25T06:33:50;101705.50;;;20.38;100.00
33189;BME280;52601;53.070;10.600;2022-08-25T06:36:36;101710.03;;;20.72;100.00
33189;BME280;52601;53.070;10.600;2022-08-25T06:39:22;101705.66;;;20.71;100.00
33189;BME280;52601;53.070;10.600;2022-08-25T06:42:08;101698.72;;;20.92;100.00
33189;BME280;52601;53.070;10.600;2022-08-25T06:44:54;101714.09;;;20.54;100.00
33189;BME280;52601;53.070;10.600;2022-08-25T06:47:40;101715.59;;;20.69;100.00
33189;BME280;52601;53.070;10.600;2022-08-25T06:50:25;101710.69;;;21.10;100.00
33189;BME280;52601;53.070;10.600;2022-08-25T06:53:11;101716.09;;;21.32;100.00
33189;BME280;52601;53.070;10.600;2022-08-25T06:55:57;101717.38;;;20.92;100.00
33189;BME280;52601;53.070;10.600;2022-08-25T06:58:49;101719.69;;;20.86;100.00
33189;BME280;52601;53.070;10.600;2022-08-25T07:01:34;101720.59;;;20.74;100.00
33189;BME280;52601;53.070;10.600;2022-08-25T07:04:20;101715.44;;;20.83;100.00
33189;BME280;52601;53.070;10.600;2022-08-25T07:07:06;101723.91;;;20.88;100.00
33189;BME280;52601;53.070;10.600;2022-08-25T07:09:51;101716.56;;;21.15;100.00
33189;BME280;52601;53.070;10.600;2022-08-25T07:12:37;101718.81;;;21.09;100.00
33189;BME280;52601;53.070;10.600;2022-08-25T07:15:23;101720.69;;;21.19;100.00
33189;BME280;52601;53.070;10.600;2022-08-25T07:18:09;101712.97;;;21.50;100.00
33189;BME280;52601;53.070;10.600;2022-08-25T07:20:56;101718.19;;;21.40;100.00
33189;BME280;52601;53.070;10.600;2022-08-25T07:23:42;101719.38;;;21.36;100.00
33189;BME280;52601;53.070;10.600;2022-08-25T07:26:30;101714.44;;;21.76;100.00
33189;BME280;52601;53.070;10.600;2022-08-25T07:29:25;101707.94;;;22.02;100.00
33189;BME280;52601;53.070;10.600;2022-08-25T07:32:17;101711.72;;;21.88;100.00
33189;BME280;52601;53.070;10.600;2022-08-25T07:35:04;101702.09;;;22.08;100.00
33189;BME280;52601;53.070;10.600;2022-08-25T07:38:05;101705.69;;;22.40;100.00
33189;BME280;52601;53.070;10.600;2022-08-25T07:41:02;101707.63;;;22.38;100.00
33189;BME280;52601;53.070;10.600;2022-08-25T07:43:48;101705.91;;;22.48;100.00
33189;BME280;52601;53.070;10.600;2022-08-25T07:46:34;101704.84;;;22.40;100.00
33189;BME280;52601;53.070;10.600;2022-08-25T07:49:22;101712.19;;;22.69;99.66
33189;BME280;52601;53.070;10.600;2022-08-25T07:52:08;101713.63;;;22.73;99.78
33189;BME280;52601;53.070;10.600;2022-08-25T07:54:54;101715.44;;;22.84;98.77
33189;BME280;52601;53.070;10.600;2022-08-25T07:57:40;101714.50;;;22.74;99.60
33189;BME280;52601;53.070;10.600;2022-08-25T08:00:26;101712.66;;;22.09;100.00
33189;BME280;52601;53.070;10.600;2022-08-25T08:03:14;101714.25;;;22.23;100.00
33189;BME280;52601;53.070;10.600;2022-08-25T08:06:22;101708.72;;;22.36;100.00
33189;BME280;52601;53.070;10.600;2022-08-25T08:09:08;101707.72;;;22.48;100.00
33189;BME280;52601;53.070;10.600;2022-08-25T08:11:54;101699.16;;;22.22;100.00
33189;BME280;52601;53.070;10.600;2022-08-25T08:14:39;101705.94;;;22.37;100.00
33189;BME280;52601;53.070;10.600;2022-08-25T08:17:30;101706.03;;;22.58;100.00
33189;BME280;52601;53.070;10.600;2022-08-25T08:20:16;101711.41;;;23.10;99.17
33189;BME280;52601;53.070;10.600;2022-08-25T08:23:07;101721.56;;;22.95;99.31
33189;BME280;52601;53.070;10.600;2022-08-25T08:25:52;101716.97;;;23.80;95.78
33189;BME280;52601;53.070;10.600;2022-08-25T08:28:38;101712.28;;;24.12;92.08
33189;BME280;52601;53.070;10.600;2022-08-25T08:31:25;101708.78;;;24.12;92.10
33189;BME280;52601;53.070;10.600;2022-08-25T08:34:13;101710.41;;;24.52;89.41
33189;BME280;52601;53.070;10.600;2022-08-25T08:36:59;101714.16;;;24.90;87.13
33189;BME280;52601;53.070;10.600;2022-08-25T08:39:45;101708.22;;;24.96;86.68
33189;BME280;52601;53.070;10.600;2022-08-25T08:48:37;101710.78;;;24.97;88.32
33189;BME280;52601;53.070;10.600;2022-08-25T08:51:30;101711.06;;;25.13;85.92
33189;BME280;52601;53.070;10.600;2022-08-25T08:54:21;101701.97;;;25.43;84.11
33189;BME280;52601;53.070;10.600;2022-08-25T08:57:13;101706.50;;;25.42;84.54
33189;BME280;52601;53.070;10.600;2022-08-25T09:00:04;101703.75;;;25.98;81.42
33189;BME280;52601;53.070;10.600;2022-08-25T09:02:56;101704.63;;;25.99;81.49
33189;BME280;52601;53.070;10.600;2022-08-25T09:05:47;101709.84;;;27.07;77.16
33189;BME280;52601;53.070;10.600;2022-08-25T09:08:35;101705.50;;;26.44;79.19
33189;BME280;52601;53.070;10.600;2022-08-25T09:18:13;101705.38;;;28.27;71.90
33189;BME280;52601;53.070;10.600;2022-08-25T09:21:15;101693.06;;;28.32;70.01
33189;BME280;52601;53.070;10.600;2022-08-25T09:24:23;101701.03;;;28.00;71.22
33189;BME280;52601;53.070;10.600;2022-08-25T09:27:27;101699.69;;;27.96;73.61
33189;BME280;52601;53.070;10.600;2022-08-25T09:30:19;101693.41;;;29.98;65.74
33189;BME280;52601;53.070;10.600;2022-08-25T09:33:10;101675.84;;;29.86;63.92
33189;BME280;52601;53.070;10.600;2022-08-25T09:35:56;101679.44;;;30.17;63.25
33189;BME280;52601;53.070;10.600;2022-08-25T09:38:42;101668.66;;;30.63;62.05
33189;BME280;52601;53.070;10.600;2022-08-25T09:44:39;101675.59;;;31.10;60.54
33189;BME280;52601;53.070;10.600;2022-08-25T09:47:26;101657.25;;;31.50;59.88
33189;BME280;52601;53.070;10.600;2022-08-25T09:50:18;101658.50;;;34.87;51.39
33189;BME280;52601;53.070;10.600;2022-08-25T09:53:11;101648.66;;;35.12;50.05
33189;BME280;52601;53.070;10.600;2022-08-25T09:56:04;101645.25;;;35.30;49.56
33189;BME280;52601;53.070;10.600;2022-08-25T09:58:52;101648.22;;;35.41;49.11
33189;BME280;52601;53.070;10.600;2022-08-25T10:01:50;101618.97;;;38.86;43.67
33189;BME280;52601;53.070;10.600;2022-08-25T10:04:38;101622.78;;;38.43;43.18
33189;BME280;52601;53.070;10.600;2022-08-25T10:07:31;101623.38;;;38.75;42.13
33189;BME280;52601;53.070;10.600;2022-08-25T10:10:42;101620.81;;;37.30;44.83
33189;BME280;52601;53.070;10.600;2022-08-25T10:13:40;101614.22;;;37.74;44.79
33189;BME280;52601;53.070;10.600;2022-08-25T10:16:29;101612.00;;;36.23;46.83
33189;BME280;52601;53.070;10.600;2022-08-25T10:22:25;101602.97;;;37.64;44.12
33189;BME280;52601;53.070;10.600;2022-08-25T10:25:27;101586.84;;;37.38;43.93
33189;BME280;52601;53.070;10.600;2022-08-25T10:28:24;101593.41;;;39.43;41.69
33189;BME280;52601;53.070;10.600;2022-08-25T10:31:27;101579.66;;;37.91;43.60
33189;BME280;52601;53.070;10.600;2022-08-25T10:34:36;101578.75;;;39.77;40.87
33189;BME280;52601;53.070;10.600;2022-08-25T10:40:42;101576.97;;;40.27;39.11
33189;BME280;52601;53.070;10.600;2022-08-25T10:43:34;101569.63;;;40.16;39.27
33189;BME280;52601;53.070;10.600;2022-08-25T10:46:45;101566.09;;;40.04;38.26
33189;BME280;52601;53.070;10.600;2022-08-25T10:49:49;101557.59;;;40.84;37.92
33189;BME280;52601;53.070;10.600;2022-08-25T10:53:04;101552.16;;;41.27;37.50
33189;BME280;52601;53.070;10.600;2022-08-25T10:56:06;101550.09;;;40.79;37.66
33189;BME280;52601;53.070;10.600;2022-08-25T10:59:23;101539.78;;;41.73;36.92
33189;BME280;52601;53.070;10.600;2022-08-25T11:02:58;101533.13;;;41.47;36.80
33189;BME280;52601;53.070;10.600;2022-08-25T11:05:42;101532.31;;;42.22;35.62
33189;BME280;52601;53.070;10.600;2022-08-25T11:08:46;101522.56;;;43.24;34.49
33189;BME280;52601;53.070;10.600;2022-08-25T11:11:39;101521.94;;;43.89;33.63
33189;BME280;52601;53.070;10.600;2022-08-25T11:14:35;101512.94;;;42.43;35.00
33189;BME280;52601;53.070;10.600;2022-08-25T11:17:26;101513.25;;;41.67;35.66
33189;BME280;52601;53.070;10.600;2022-08-25T11:20:19;101509.84;;;42.40;34.70
33189;BME280;52601;53.070;10.600;2022-08-25T11:23:20;101507.31;;;44.04;32.22
33189;BME280;52601;53.070;10.600;2022-08-25T11:26:10;101510.25;;;38.85;38.24
33189;BME280;52601;53.070;10.600;2022-08-25T11:29:05;101508.28;;;39.88;37.86
33189;BME280;52601;53.070;10.600;2022-08-25T11:31:57;101508.69;;;38.89;38.34
33189;BME280;52601;53.070;10.600;2022-08-25T11:34:45;101502.59;;;38.52;37.94
33189;BME280;52601;53.070;10.600;2022-08-25T11:37:31;101498.56;;;35.70;43.19
33189;BME280;52601;53.070;10.600;2022-08-25T11:50:06;101488.81;;;40.51;35.93
33189;BME280;52601;53.070;10.600;2022-08-25T11:52:53;101484.78;;;39.01;37.97
33189;BME280;52601;53.070;10.600;2022-08-25T11:58:50;101481.38;;;39.90;36.33
33189;BME280;52601;53.070;10.600;2022-08-25T12:04:40;101470.63;;;39.43;36.36
33189;BME280;52601;53.070;10.600;2022-08-25T12:11:05;101458.72;;;41.21;34.06
33189;BME280;52601;53.070;10.600;2022-08-25T12:14:09;101444.34;;;37.14;40.28
33189;BME280;52601;53.070;10.600;2022-08-25T12:17:05;101451.09;;;40.01;37.50
33189;BME280;52601;53.070;10.600;2022-08-25T12:19:58;101435.00;;;43.45;32.46
33189;BME280;52601;53.070;10.600;2022-08-25T12:22:53;101435.50;;;41.96;33.41
33189;BME280;52601;53.070;10.600;2022-08-25T12:25:44;101438.13;;;39.01;37.54
33189;BME280;52601;53.070;10.600;2022-08-25T12:28:40;101439.38;;;36.19;41.48
33189;BME280;52601;53.070;10.600;2022-08-25T12:38:04;101424.56;;;34.89;44.96
33189;BME280;52601;53.070;10.600;2022-08-25T12:43:38;101423.59;;;33.85;46.31
33189;BME280;52601;53.070;10.600;2022-08-25T12:49:33;101407.69;;;34.09;45.51
33189;BME280;52601;53.070;10.600;2022-08-25T12:52:22;101416.03;;;36.48;41.11
33189;BME280;52601;53.070;10.600;2022-08-25T12:55:12;101415.44;;;33.72;45.05
33189;BME280;52601;53.070;10.600;2022-08-25T12:57:59;101416.03;;;32.67;47.31
33189;BME280;52601;53.070;10.600;2022-08-25T13:07:52;101398.22;;;33.52;45.90
33189;BME280;52601;53.070;10.600;2022-08-25T13:11:03;101394.69;;;36.75;41.24
33189;BME280;52601;53.070;10.600;2022-08-25T13:14:00;101385.31;;;40.50;34.62
33189;BME280;52601;53.070;10.600;2022-08-25T13:16:54;101381.75;;;41.62;33.23
33189;BME280;52601;53.070;10.600;2022-08-25T13:19:41;101390.38;;;37.33;39.56
33189;BME280;52601;53.070;10.600;2022-08-25T13:22:26;101396.28;;;35.28;43.21
33189;BME280;52601;53.070;10.600;2022-08-25T13:25:17;101383.84;;;34.94;44.01
33189;BME280;52601;53.070;10.600;2022-08-25T13:28:20;101381.69;;;33.60;46.96
33189;BME280;52601;53.070;10.600;2022-08-25T13:31:17;101372.56;;;35.28;43.52
33189;BME280;52601;53.070;10.600;2022-08-25T13:34:17;101364.19;;;39.67;36.67
33189;BME280;52601;53.070;10.600;2022-08-25T13:37:15;101356.69;;;40.29;36.56
33189;BME280;52601;53.070;10.600;2022-08-25T13:40:27;101342.38;;;42.09;33.23
33189;BME280;52601;53.070;10.600;2022-08-25T13:43:13;101339.66;;;41.18;34.08
33189;BME280;52601;53.070;10.600;2022-08-25T13:45:59;101335.78;;;39.78;35.55
33189;BME280;52601;53.070;10.600;2022-08-25T13:48:45;101340.03;;;40.02;35.25
33189;BME280;52601;53.070;10.600;2022-08-25T13:51:35;101335.28;;;40.96;34.35
33189;BME280;52601;53.070;10.600;2022-08-25T13:54:34;101329.88;;;41.33;33.82
33189;BME280;52601;53.070;10.600;2022-08-25T13:57:27;101323.22;;;42.91;32.00
33189;BME280;52601;53.070;10.600;2022-08-25T14:00:26;101318.63;;;44.71;30.03
33189;BME280;52601;53.070;10.600;2022-08-25T14:03:36;101320.72;;;41.54;33.52
33189;BME280;52601;53.070;10.600;2022-08-25T14:06:25;101322.56;;;39.30;36.48
33189;BME280;52601;53.070;10.600;2022-08-25T14:09:14;101318.88;;;38.68;37.28
33189;BME280;52601;53.070;10.600;2022-08-25T14:12:01;101313.84;;;38.14;37.71
33189;BME280;52601;53.070;10.600;2022-08-25T14:14:57;101315.94;;;36.47;40.45
33189;BME280;52601;53.070;10.600;2022-08-25T14:17:59;101310.19;;;36.85;40.42
33189;BME280;52601;53.070;10.600;2022-08-25T14:20:48;101301.19;;;38.13;38.35
33189;BME280;52601;53.070;10.600;2022-08-25T14:23:36;101297.00;;;37.23;38.97
33189;BME280;52601;53.070;10.600;2022-08-25T14:26:22;101314.19;;;34.47;44.15
33189;BME280;52601;53.070;10.600;2022-08-25T14:29:07;101304.81;;;33.45;45.84
33189;BME280;52601;53.070;10.600;2022-08-25T14:31:54;101293.72;;;33.40;46.62
33189;BME280;52601;53.070;10.600;2022-08-25T14:34:41;101294.81;;;32.85;47.47
33189;BME280;52601;53.070;10.600;2022-08-25T14:37:27;101294.50;;;32.54;48.67
33189;BME280;52601;53.070;10.600;2022-08-25T14:40:16;101294.31;;;33.29;47.24
33189;BME280;52601;53.070;10.600;2022-08-25T14:43:06;101282.50;;;35.84;42.40
33189;BME280;52601;53.070;10.600;2022-08-25T14:45:54;101283.72;;;38.65;38.21
33189;BME280;52601;53.070;10.600;2022-08-25T14:48:42;101269.66;;;39.68;35.98
33189;BME280;52601;53.070;10.600;2022-08-25T14:51:29;101274.13;;;38.40;37.68
33189;BME280;52601;53.070;10.600;2022-08-25T14:54:16;101270.50;;;36.46;41.04
33189;BME280;52601;53.070;10.600;2022-08-25T14:57:03;101271.59;;;35.28;42.87
33189;BME280;52601;53.070;10.600;2022-08-25T14:59:53;101274.25;;;33.37;46.98
33189;BME280;52601;53.070;10.600;2022-08-25T15:02:40;101273.50;;;32.35;49.07
33189;BME280;52601;53.070;10.600;2022-08-25T15:05:26;101260.41;;;35.36;44.59
33189;BME280;52601;53.070;10.600;2022-08-25T15:08:14;101255.13;;;38.78;38.63
33189;BME280;52601;53.070;10.600;2022-08-25T15:11:18;101251.66;;;39.44;37.28
33189;BME280;52601;53.070;10.600;2022-08-25T15:14:03;101264.22;;;36.75;41.57
33189;BME280;52601;53.070;10.600;2022-08-25T15:16:52;101257.81;;;38.61;38.46
33189;BME280;52601;53.070;10.600;2022-08-25T15:19:38;101239.69;;;37.51;39.44
33189;BME280;52601;53.070;10.600;2022-08-25T15:22:25;101247.94;;;35.54;43.17
33189;BME280;52601;53.070;10.600;2022-08-25T15:25:11;101242.06;;;34.50;44.84
33189;BME280;52601;53.070;10.600;2022-08-25T15:28:05;101250.13;;;34.76;44.56
33189;BME280;52601;53.070;10.600;2022-08-25T15:30:54;101238.53;;;36.47;41.44
33189;BME280;52601;53.070;10.600;2022-08-25T15:33:40;101232.28;;;38.33;38.59